sensor_id;sensor_type;location;lat;lon;timestamp;P1;durP1;ratioP1;P2;durP2;ratioP2
76113;SDS011;64845;53.086;5.834;2023-04-06T00:01:30;9.98;;;5.13;;
76113;SDS011;64845;53.086;5.834;2023-04-06T00:03:56;9.10;;;4.93;;
76113;SDS011;64845;53.086;5.834;2023-04-06T00:06:21;7.28;;;4.70;;
76113;SDS011;64845;53.086;5.834;2023-04-06T00:08:46;7.85;;;4.72;;
76113;SDS011;64845;53.086;5.834;2023-04-06T00:11:12;8.82;;;5.15;;
76113;SDS011;64845;53.086;5.834;2023-04-06T00:13:37;7.53;;;4.82;;
76113;SDS011;64845;53.086;5.834;2023-04-06T00:16:03;8.88;;;5.10;;
76113;SDS011;64845;53.086;5.834;2023-04-06T00:18:30;7.85;;;5.05;;
76113;SDS011;64845;53.086;5.834;2023-04-06T00:20:55;7.35;;;5.20;;
76113;SDS011;64845;53.086;5.834;2023-04-06T00:23:21;6.88;;;4.57;;
76113;SDS011;64845;53.086;5.834;2023-04-06T00:25:46;11.18;;;5.20;;
76113;SDS011;64845;53.086;5.834;2023-04-06T00:28:12;6.72;;;4.80;;
76113;SDS011;64845;53.086;5.834;2023-04-06T00:30:37;6.07;;;4.55;;
76113;SDS011;64845;53.086;5.834;2023-04-06T00:33:02;8.52;;;4.63;;
76113;SDS011;64845;53.086;5.834;2023-04-06T00:35:28;9.13;;;4.80;;
76113;SDS011;64845;53.086;5.834;2023-04-06T00:37:53;8.63;;;5.03;;
76113;SDS011;64845;53.086;5.834;2023-04-06T00:40:19;8.98;;;4.78;;
76113;SDS011;64845;53.086;5.834;2023-04-06T00:42:44;9.07;;;5.15;;
76113;SDS011;64845;53.086;5.834;2023-04-06T00:45:10;6.10;;;4.25;;
76113;SDS011;64845;53.086;5.834;2023-04-06T00:47:35;9.98;;;5.28;;
76113;SDS011;64845;53.086;5.834;2023-04-06T00:50:01;9.25;;;5.05;;
76113;SDS011;64845;53.086;5.834;2023-04-06T00:52:27;7.30;;;4.95;;
76113;SDS011;64845;53.086;5.834;2023-04-06T00:54:53;7.50;;;5.07;;
76113;SDS011;64845;53.086;5.834;2023-04-06T00:57:18;5.60;;;4.40;;
76113;SDS011;64845;53.086;5.834;2023-04-06T00:59:44;10.20;;;4.75;;
76113;SDS011;64845;53.086;5.834;2023-04-06T01:02:10;9.30;;;4.88;;
76113;SDS011;64845;53.086;5.834;2023-04-06T01:04:35;8.57;;;4.43;;
76113;SDS011;64845;53.086;5.834;2023-04-06T01:07:01;8.05;;;4.82;;
76113;SDS011;64845;53.086;5.834;2023-04-06T01:09:27;11.25;;;5.22;;
76113;SDS011;64845;53.086;5.834;2023-04-06T01:11:55;9.77;;;5.60;;
76113;SDS011;64845;53.086;5.834;2023-04-06T01:14:21;8.85;;;4.72;;
76113;SDS011;64845;53.086;5.834;2023-04-06T01:16:46;9.80;;;5.18;;
76113;SDS011;64845;53.086;5.834;2023-04-06T01:19:12;8.07;;;5.03;;
76113;SDS011;64845;53.086;5.834;2023-04-06T01:21:38;12.38;;;4.80;;
76113;SDS011;64845;53.086;5.834;2023-04-06T01:24:05;10.70;;;5.03;;
76113;SDS011;64845;53.086;5.834;2023-04-06T01:26:32;8.38;;;5.20;;
76113;SDS011;64845;53.086;5.834;2023-04-06T01:28:58;8.35;;;4.82;;
76113;SDS011;64845;53.086;5.834;2023-04-06T01:31:24;14.65;;;5.75;;
76113;SDS011;64845;53.086;5.834;2023-04-06T01:33:51;9.13;;;5.07;;
76113;SDS011;64845;53.086;5.834;2023-04-06T01:36:17;6.82;;;4.88;;
76113;SDS011;64845;53.086;5.834;2023-04-06T01:38:43;8.27;;;5.15;;
76113;SDS011;64845;53.086;5.834;2023-04-06T01:41:09;7.53;;;5.20;;
76113;SDS011;64845;53.086;5.834;2023-04-06T01:43:34;9.52;;;5.43;;
76113;SDS011;64845;53.086;5.834;2023-04-06T01:46:00;7.45;;;5.40;;
76113;SDS011;64845;53.086;5.834;2023-04-06T01:48:26;6.55;;;4.70;;
76113;SDS011;64845;53.086;5.834;2023-04-06T01:50:52;8.85;;;5.13;;
76113;SDS011;64845;53.086;5.834;2023-04-06T01:53:18;6.55;;;5.03;;
76113;SDS011;64845;53.086;5.834;2023-04-06T01:55:43;11.00;;;5.75;;
76113;SDS011;64845;53.086;5.834;2023-04-06T01:58:09;9.18;;;5.68;;
76113;SDS011;64845;53.086;5.834;2023-04-06T02:00:35;8.45;;;4.75;;
76113;SDS011;64845;53.086;5.834;2023-04-06T02:03:00;7.95;;;4.80;;
76113;SDS011;64845;53.086;5.834;2023-04-06T02:05:26;8.77;;;5.20;;
76113;SDS011;64845;53.086;5.834;2023-04-06T02:07:51;7.22;;;4.65;;
76113;SDS011;64845;53.086;5.834;2023-04-06T02:10:17;10.25;;;4.80;;
76113;SDS011;64845;53.086;5.834;2023-04-06T02:12:42;10.02;;;5.15;;
76113;SDS011;64845;53.086;5.834;2023-04-06T02:15:08;10.48;;;5.30;;
76113;SDS011;64845;53.086;5.834;2023-04-06T02:17:34;7.93;;;4.97;;
76113;SDS011;64845;53.086;5.834;2023-04-06T02:19:59;7.47;;;5.28;;
76113;SDS011;64845;53.086;5.834;2023-04-06T02:22:25;9.10;;;5.07;;
76113;SDS011;64845;53.086;5.834;2023-04-06T02:24:50;7.15;;;4.97;;
76113;SDS011;64845;53.086;5.834;2023-04-06T02:27:16;8.57;;;4.90;;
76113;SDS011;64845;53.086;5.834;2023-04-06T02:29:41;9.77;;;5.75;;
76113;SDS011;64845;53.086;5.834;2023-04-06T02:32:07;9.68;;;5.60;;
76113;SDS011;64845;53.086;5.834;2023-04-06T02:34:32;9.07;;;5.68;;
76113;SDS011;64845;53.086;5.834;2023-04-06T02:36:57;6.38;;;4.85;;
76113;SDS011;64845;53.086;5.834;2023-04-06T02:39:23;8.63;;;5.90;;
76113;SDS011;64845;53.086;5.834;2023-04-06T02:41:48;9.07;;;5.50;;
76113;SDS011;64845;53.086;5.834;2023-04-06T02:44:14;9.77;;;5.45;;
76113;SDS011;64845;53.086;5.834;2023-04-06T02:46:39;9.40;;;5.07;;
76113;SDS011;64845;53.086;5.834;2023-04-06T02:49:05;8.00;;;4.80;;
76113;SDS011;64845;53.086;5.834;2023-04-06T02:51:30;5.78;;;4.93;;
76113;SDS011;64845;53.086;5.834;2023-04-06T02:53:56;9.88;;;5.38;;
76113;SDS011;64845;53.086;5.834;2023-04-06T02:56:21;8.80;;;5.30;;
76113;SDS011;64845;53.086;5.834;2023-04-06T02:58:47;9.18;;;5.25;;
76113;SDS011;64845;53.086;5.834;2023-04-06T03:01:12;7.35;;;5.57;;
76113;SDS011;64845;53.086;5.834;2023-04-06T03:03:38;8.90;;;5.15;;
76113;SDS011;64845;53.086;5.834;2023-04-06T03:06:03;9.30;;;5.47;;
76113;SDS011;64845;53.086;5.834;2023-04-06T03:08:29;6.78;;;5.03;;
76113;SDS011;64845;53.086;5.834;2023-04-06T03:10:55;9.20;;;5.43;;
76113;SDS011;64845;53.086;5.834;2023-04-06T03:13:20;7.40;;;5.47;;
76113;SDS011;64845;53.086;5.834;2023-04-06T03:15:46;9.05;;;5.38;;
76113;SDS011;64845;53.086;5.834;2023-04-06T03:18:11;7.53;;;5.13;;
76113;SDS011;64845;53.086;5.834;2023-04-06T03:20:37;9.52;;;5.60;;
76113;SDS011;64845;53.086;5.834;2023-04-06T03:23:02;13.02;;;5.82;;
76113;SDS011;64845;53.086;5.834;2023-04-06T03:25:28;8.25;;;5.35;;
76113;SDS011;64845;53.086;5.834;2023-04-06T03:27:55;9.65;;;5.18;;
76113;SDS011;64845;53.086;5.834;2023-04-06T03:30:20;11.68;;;5.35;;
76113;SDS011;64845;53.086;5.834;2023-04-06T03:32:46;8.10;;;5.53;;
76113;SDS011;64845;53.086;5.834;2023-04-06T03:35:11;11.05;;;5.53;;
76113;SDS011;64845;53.086;5.834;2023-04-06T03:37:36;7.20;;;5.28;;
76113;SDS011;64845;53.086;5.834;2023-04-06T03:40:02;8.25;;;6.10;;
76113;SDS011;64845;53.086;5.834;2023-04-06T03:42:29;7.75;;;5.57;;
76113;SDS011;64845;53.086;5.834;2023-04-06T03:44:55;7.07;;;5.13;;
76113;SDS011;64845;53.086;5.834;2023-04-06T03:47:21;10.57;;;5.32;;
76113;SDS011;64845;53.086;5.834;2023-04-06T03:49:47;8.38;;;5.30;;
76113;SDS011;64845;53.086;5.834;2023-04-06T03:52:13;9.65;;;5.07;;
76113;SDS011;64845;53.086;5.834;2023-04-06T03:54:38;8.00;;;5.32;;
76113;SDS011;64845;53.086;5.834;2023-04-06T03:57:04;6.88;;;5.05;;
76113;SDS011;64845;53.086;5.834;2023-04-06T03:59:30;8.07;;;5.70;;
76113;SDS011;64845;53.086;5.834;2023-04-06T04:01:55;12.43;;;6.00;;
76113;SDS011;64845;53.086;5.834;2023-04-06T04:04:20;7.30;;;5.55;;
76113;SDS011;64845;53.086;5.834;2023-04-06T04:06:46;8.05;;;5.68;;
76113;SDS011;64845;53.086;5.834;2023-04-06T04:09:11;8.65;;;5.97;;
76113;SDS011;64845;53.086;5.834;2023-04-06T04:11:37;8.65;;;5.95;;
76113;SDS011;64845;53.086;5.834;2023-04-06T04:14:02;7.55;;;5.43;;
76113;SDS011;64845;53.086;5.834;2023-04-06T04:16:28;10.85;;;5.75;;
76113;SDS011;64845;53.086;5.834;2023-04-06T04:18:54;7.82;;;5.63;;
76113;SDS011;64845;53.086;5.834;2023-04-06T04:21:19;9.23;;;6.47;;
76113;SDS011;64845;53.086;5.834;2023-04-06T04:23:45;15.55;;;6.50;;
76113;SDS011;64845;53.086;5.834;2023-04-06T04:26:10;10.25;;;5.90;;
76113;SDS011;64845;53.086;5.834;2023-04-06T04:28:36;9.05;;;6.13;;
76113;SDS011;64845;53.086;5.834;2023-04-06T04:31:01;8.60;;;5.97;;
76113;SDS011;64845;53.086;5.834;2023-04-06T04:33:27;10.77;;;6.10;;
76113;SDS011;64845;53.086;5.834;2023-04-06T04:35:52;8.95;;;6.05;;
76113;SDS011;64845;53.086;5.834;2023-04-06T04:38:17;9.38;;;5.82;;
76113;SDS011;64845;53.086;5.834;2023-04-06T04:40:43;9.70;;;6.00;;
76113;SDS011;64845;53.086;5.834;2023-04-06T04:43:08;8.40;;;6.18;;
76113;SDS011;64845;53.086;5.834;2023-04-06T04:45:34;10.88;;;5.82;;
76113;SDS011;64845;53.086;5.834;2023-04-06T04:47:59;13.75;;;6.55;;
76113;SDS011;64845;53.086;5.834;2023-04-06T04:50:25;9.63;;;6.18;;
76113;SDS011;64845;53.086;5.834;2023-04-06T04:52:50;9.55;;;5.55;;
76113;SDS011;64845;53.086;5.834;2023-04-06T04:55:16;9.13;;;6.32;;
76113;SDS011;64845;53.086;5.834;2023-04-06T04:57:42;8.60;;;5.90;;
76113;SDS011;64845;53.086;5.834;2023-04-06T05:00:08;8.45;;;5.45;;
76113;SDS011;64845;53.086;5.834;2023-04-06T05:02:33;8.48;;;6.28;;
76113;SDS011;64845;53.086;5.834;2023-04-06T05:04:59;9.20;;;6.22;;
76113;SDS011;64845;53.086;5.834;2023-04-06T05:07:25;8.85;;;5.72;;
76113;SDS011;64845;53.086;5.834;2023-04-06T05:09:50;9.00;;;6.10;;
76113;SDS011;64845;53.086;5.834;2023-04-06T05:12:15;11.32;;;6.07;;
76113;SDS011;64845;53.086;5.834;2023-04-06T05:14:41;8.65;;;6.13;;
76113;SDS011;64845;53.086;5.834;2023-04-06T05:17:07;7.68;;;6.13;;
76113;SDS011;64845;53.086;5.834;2023-04-06T05:19:32;7.60;;;5.97;;
76113;SDS011;64845;53.086;5.834;2023-04-06T05:21:58;9.10;;;6.30;;
76113;SDS011;64845;53.086;5.834;2023-04-06T05:24:23;9.82;;;6.63;;
76113;SDS011;64845;53.086;5.834;2023-04-06T05:26:48;10.57;;;6.38;;
76113;SDS011;64845;53.086;5.834;2023-04-06T05:29:14;9.43;;;6.68;;
76113;SDS011;64845;53.086;5.834;2023-04-06T05:31:40;13.60;;;6.50;;
76113;SDS011;64845;53.086;5.834;2023-04-06T05:34:05;12.95;;;6.55;;
76113;SDS011;64845;53.086;5.834;2023-04-06T05:36:30;11.32;;;6.47;;
76113;SDS011;64845;53.086;5.834;2023-04-06T05:38:57;10.32;;;6.72;;
76113;SDS011;64845;53.086;5.834;2023-04-06T05:41:23;8.52;;;6.65;;
76113;SDS011;64845;53.086;5.834;2023-04-06T05:43:49;10.23;;;6.90;;
76113;SDS011;64845;53.086;5.834;2023-04-06T05:46:41;9.52;;;5.97;;
76113;SDS011;64845;53.086;5.834;2023-04-06T05:49:06;9.23;;;6.32;;
76113;SDS011;64845;53.086;5.834;2023-04-06T05:51:31;8.90;;;6.38;;
76113;SDS011;64845;53.086;5.834;2023-04-06T05:53:57;12.88;;;7.10;;
76113;SDS011;64845;53.086;5.834;2023-04-06T05:56:23;10.95;;;6.90;;
76113;SDS011;64845;53.086;5.834;2023-04-06T05:58:48;9.32;;;6.30;;
76113;SDS011;64845;53.086;5.834;2023-04-06T06:01:14;9.07;;;6.60;;
76113;SDS011;64845;53.086;5.834;2023-04-06T06:03:40;9.65;;;6.85;;
76113;SDS011;64845;53.086;5.834;2023-04-06T06:06:05;12.20;;;7.00;;
76113;SDS011;64845;53.086;5.834;2023-04-06T06:08:31;9.82;;;6.47;;
76113;SDS011;64845;53.086;5.834;2023-04-06T06:10:56;11.93;;;7.25;;
76113;SDS011;64845;53.086;5.834;2023-04-06T06:13:22;10.73;;;6.90;;
76113;SDS011;64845;53.086;5.834;2023-04-06T06:15:48;11.52;;;7.50;;
76113;SDS011;64845;53.086;5.834;2023-04-06T06:18:14;11.13;;;7.03;;
76113;SDS011;64845;53.086;5.834;2023-04-06T06:20:39;11.05;;;7.25;;
76113;SDS011;64845;53.086;5.834;2023-04-06T06:23:05;16.50;;;7.68;;
76113;SDS011;64845;53.086;5.834;2023-04-06T06:25:31;9.77;;;6.35;;
76113;SDS011;64845;53.086;5.834;2023-04-06T06:27:56;11.30;;;6.95;;
76113;SDS011;64845;53.086;5.834;2023-04-06T06:30:22;11.25;;;7.28;;
76113;SDS011;64845;53.086;5.834;2023-04-06T06:32:47;9.75;;;7.20;;
76113;SDS011;64845;53.086;5.834;2023-04-06T06:35:13;11.68;;;7.47;;
76113;SDS011;64845;53.086;5.834;2023-04-06T06:37:39;9.88;;;7.35;;
76113;SDS011;64845;53.086;5.834;2023-04-06T06:40:04;12.80;;;7.35;;
76113;SDS011;64845;53.086;5.834;2023-04-06T06:42:30;12.38;;;7.15;;
76113;SDS011;64845;53.086;5.834;2023-04-06T06:44:56;10.23;;;6.93;;
76113;SDS011;64845;53.086;5.834;2023-04-06T06:47:21;12.15;;;7.10;;
76113;SDS011;64845;53.086;5.834;2023-04-06T06:49:47;10.18;;;7.28;;
76113;SDS011;64845;53.086;5.834;2023-04-06T06:52:12;14.68;;;8.35;;
76113;SDS011;64845;53.086;5.834;2023-04-06T06:54:37;11.10;;;7.38;;
76113;SDS011;64845;53.086;5.834;2023-04-06T06:57:03;12.27;;;7.68;;
76113;SDS011;64845;53.086;5.834;2023-04-06T06:59:28;10.38;;;7.47;;
76113;SDS011;64845;53.086;5.834;2023-04-06T07:01:53;12.23;;;7.53;;
76113;SDS011;64845;53.086;5.834;2023-04-06T07:04:19;14.43;;;6.95;;
76113;SDS011;64845;53.086;5.834;2023-04-06T07:06:44;14.90;;;7.78;;
76113;SDS011;64845;53.086;5.834;2023-04-06T07:09:10;11.27;;;8.05;;
76113;SDS011;64845;53.086;5.834;2023-04-06T07:11:35;12.65;;;7.10;;
76113;SDS011;64845;53.086;5.834;2023-04-06T07:14:01;11.35;;;7.50;;
76113;SDS011;64845;53.086;5.834;2023-04-06T07:16:26;15.10;;;8.15;;
76113;SDS011;64845;53.086;5.834;2023-04-06T07:18:51;16.63;;;8.07;;
76113;SDS011;64845;53.086;5.834;2023-04-06T07:21:17;16.15;;;8.15;;
76113;SDS011;64845;53.086;5.834;2023-04-06T07:23:42;12.70;;;7.63;;
76113;SDS011;64845;53.086;5.834;2023-04-06T07:26:08;16.67;;;8.68;;
76113;SDS011;64845;53.086;5.834;2023-04-06T07:28:34;17.75;;;8.27;;
76113;SDS011;64845;53.086;5.834;2023-04-06T07:30:59;14.57;;;9.10;;
76113;SDS011;64845;53.086;5.834;2023-04-06T07:33:24;14.32;;;8.20;;
76113;SDS011;64845;53.086;5.834;2023-04-06T07:35:54;14.23;;;8.07;;
76113;SDS011;64845;53.086;5.834;2023-04-06T07:38:19;13.48;;;7.97;;
76113;SDS011;64845;53.086;5.834;2023-04-06T07:40:45;21.95;;;8.48;;
76113;SDS011;64845;53.086;5.834;2023-04-06T07:43:10;17.88;;;7.70;;
76113;SDS011;64845;53.086;5.834;2023-04-06T07:45:36;15.43;;;7.85;;
76113;SDS011;64845;53.086;5.834;2023-04-06T07:48:01;13.30;;;8.00;;
76113;SDS011;64845;53.086;5.834;2023-04-06T07:50:26;13.95;;;8.00;;
76113;SDS011;64845;53.086;5.834;2023-04-06T07:52:52;11.60;;;7.65;;
76113;SDS011;64845;53.086;5.834;2023-04-06T07:55:17;13.52;;;8.60;;
76113;SDS011;64845;53.086;5.834;2023-04-06T07:57:43;14.10;;;7.78;;
76113;SDS011;64845;53.086;5.834;2023-04-06T08:00:09;14.65;;;8.75;;
76113;SDS011;64845;53.086;5.834;2023-04-06T08:02:35;14.70;;;8.38;;
76113;SDS011;64845;53.086;5.834;2023-04-06T08:05:00;14.00;;;8.30;;
76113;SDS011;64845;53.086;5.834;2023-04-06T08:07:26;15.77;;;8.23;;
76113;SDS011;64845;53.086;5.834;2023-04-06T08:09:51;12.13;;;8.05;;
76113;SDS011;64845;53.086;5.834;2023-04-06T08:12:17;13.90;;;8.50;;
76113;SDS011;64845;53.086;5.834;2023-04-06T08:14:42;15.48;;;8.10;;
76113;SDS011;64845;53.086;5.834;2023-04-06T08:17:08;17.42;;;8.70;;
76113;SDS011;64845;53.086;5.834;2023-04-06T08:19:33;18.30;;;9.13;;
76113;SDS011;64845;53.086;5.834;2023-04-06T08:21:59;16.42;;;9.02;;
76113;SDS011;64845;53.086;5.834;2023-04-06T08:24:24;15.52;;;8.38;;
76113;SDS011;64845;53.086;5.834;2023-04-06T08:26:49;15.55;;;8.73;;
76113;SDS011;64845;53.086;5.834;2023-04-06T08:29:16;14.52;;;8.98;;
76113;SDS011;64845;53.086;5.834;2023-04-06T08:31:41;16.35;;;9.82;;
76113;SDS011;64845;53.086;5.834;2023-04-06T08:34:07;13.15;;;9.32;;
76113;SDS011;64845;53.086;5.834;2023-04-06T08:36:32;14.63;;;9.65;;
76113;SDS011;64845;53.086;5.834;2023-04-06T08:38:58;17.10;;;10.05;;
76113;SDS011;64845;53.086;5.834;2023-04-06T08:41:25;18.63;;;10.10;;
76113;SDS011;64845;53.086;5.834;2023-04-06T08:43:56;17.48;;;10.00;;
76113;SDS011;64845;53.086;5.834;2023-04-06T08:46:23;19.25;;;10.77;;
76113;SDS011;64845;53.086;5.834;2023-04-06T08:48:54;15.27;;;10.00;;
76113;SDS011;64845;53.086;5.834;2023-04-06T08:51:21;17.17;;;10.35;;
76113;SDS011;64845;53.086;5.834;2023-04-06T08:53:49;17.05;;;11.23;;
76113;SDS011;64845;53.086;5.834;2023-04-06T08:56:15;24.98;;;11.10;;
76113;SDS011;64845;53.086;5.834;2023-04-06T08:58:41;17.50;;;10.32;;
76113;SDS011;64845;53.086;5.834;2023-04-06T09:01:07;17.20;;;11.10;;
76113;SDS011;64845;53.086;5.834;2023-04-06T09:03:35;18.27;;;10.68;;
76113;SDS011;64845;53.086;5.834;2023-04-06T09:06:03;19.25;;;10.88;;
76113;SDS011;64845;53.086;5.834;2023-04-06T09:08:29;18.20;;;10.75;;
76113;SDS011;64845;53.086;5.834;2023-04-06T09:10:55;20.02;;;11.75;;
76113;SDS011;64845;53.086;5.834;2023-04-06T09:13:20;19.10;;;10.95;;
76113;SDS011;64845;53.086;5.834;2023-04-06T09:15:46;19.52;;;12.18;;
76113;SDS011;64845;53.086;5.834;2023-04-06T09:18:11;19.70;;;11.15;;
76113;SDS011;64845;53.086;5.834;2023-04-06T09:20:37;20.35;;;12.82;;
76113;SDS011;64845;53.086;5.834;2023-04-06T09:23:02;20.48;;;11.88;;
76113;SDS011;64845;53.086;5.834;2023-04-06T09:25:28;26.15;;;11.82;;
76113;SDS011;64845;53.086;5.834;2023-04-06T09:28:03;22.25;;;12.20;;
76113;SDS011;64845;53.086;5.834;2023-04-06T09:30:29;20.35;;;12.13;;
76113;SDS011;64845;53.086;5.834;2023-04-06T09:32:56;24.38;;;11.45;;
76113;SDS011;64845;53.086;5.834;2023-04-06T09:35:22;20.73;;;11.57;;
76113;SDS011;64845;53.086;5.834;2023-04-06T09:37:49;17.92;;;11.20;;
76113;SDS011;64845;53.086;5.834;2023-04-06T09:40:17;24.73;;;12.23;;
76113;SDS011;64845;53.086;5.834;2023-04-06T09:42:46;21.60;;;11.77;;
76113;SDS011;64845;53.086;5.834;2023-04-06T09:45:13;19.60;;;11.93;;
76113;SDS011;64845;53.086;5.834;2023-04-06T09:47:40;24.15;;;11.77;;
76113;SDS011;64845;53.086;5.834;2023-04-06T09:50:08;19.15;;;12.55;;
76113;SDS011;64845;53.086;5.834;2023-04-06T09:52:42;23.48;;;12.35;;
76113;SDS011;64845;53.086;5.834;2023-04-06T09:55:34;19.48;;;11.88;;
76113;SDS011;64845;53.086;5.834;2023-04-06T09:58:05;23.80;;;12.70;;
76113;SDS011;64845;53.086;5.834;2023-04-06T10:00:32;21.75;;;12.48;;
76113;SDS011;64845;53.086;5.834;2023-04-06T10:03:14;20.48;;;12.55;;
76113;SDS011;64845;53.086;5.834;2023-04-06T10:05:59;21.92;;;12.23;;
76113;SDS011;64845;53.086;5.834;2023-04-06T10:08:29;26.10;;;12.32;;
76113;SDS011;64845;53.086;5.834;2023-04-06T10:10:58;27.60;;;12.38;;
76113;SDS011;64845;53.086;5.834;2023-04-06T10:13:25;20.83;;;12.18;;
76113;SDS011;64845;53.086;5.834;2023-04-06T10:15:51;23.42;;;12.65;;
76113;SDS011;64845;53.086;5.834;2023-04-06T10:18:17;20.25;;;12.18;;
76113;SDS011;64845;53.086;5.834;2023-04-06T10:21:00;20.30;;;12.35;;
76113;SDS011;64845;53.086;5.834;2023-04-06T10:23:43;22.60;;;12.48;;
76113;SDS011;64845;53.086;5.834;2023-04-06T10:26:13;23.70;;;13.43;;
76113;SDS011;64845;53.086;5.834;2023-04-06T10:28:41;19.90;;;13.32;;
76113;SDS011;64845;53.086;5.834;2023-04-06T10:31:08;24.35;;;13.90;;
76113;SDS011;64845;53.086;5.834;2023-04-06T10:33:33;22.33;;;12.60;;
76113;SDS011;64845;53.086;5.834;2023-04-06T10:36:09;22.65;;;13.13;;
76113;SDS011;64845;53.086;5.834;2023-04-06T10:38:39;23.42;;;14.32;;
76113;SDS011;64845;53.086;5.834;2023-04-06T10:41:05;27.17;;;14.65;;
76113;SDS011;64845;53.086;5.834;2023-04-06T10:43:35;27.90;;;14.32;;
76113;SDS011;64845;53.086;5.834;2023-04-06T10:48:38;20.95;;;12.43;;
76113;SDS011;64845;53.086;5.834;2023-04-06T10:51:11;35.47;;;14.80;;
76113;SDS011;64845;53.086;5.834;2023-04-06T10:53:37;27.25;;;15.45;;
76113;SDS011;64845;53.086;5.834;2023-04-06T10:56:03;29.48;;;15.35;;
76113;SDS011;64845;53.086;5.834;2023-04-06T10:58:35;26.10;;;14.43;;
76113;SDS011;64845;53.086;5.834;2023-04-06T11:01:00;24.17;;;14.43;;
76113;SDS011;64845;53.086;5.834;2023-04-06T11:03:26;27.98;;;15.95;;
76113;SDS011;64845;53.086;5.834;2023-04-06T11:05:52;31.15;;;16.00;;
76113;SDS011;64845;53.086;5.834;2023-04-06T11:08:30;29.20;;;16.00;;
76113;SDS011;64845;53.086;5.834;2023-04-06T11:11:11;26.42;;;13.73;;
76113;SDS011;64845;53.086;5.834;2023-04-06T11:16:42;26.90;;;15.27;;
76113;SDS011;64845;53.086;5.834;2023-04-06T11:19:01;24.50;;;14.82;;
76113;SDS011;64845;53.086;5.834;2023-04-06T11:24:04;25.85;;;14.80;;
76113;SDS011;64845;53.086;5.834;2023-04-06T11:29:18;24.75;;;14.25;;
76113;SDS011;64845;53.086;5.834;2023-04-06T11:31:49;27.55;;;14.40;;
76113;SDS011;64845;53.086;5.834;2023-04-06T11:34:16;25.42;;;14.13;;
76113;SDS011;64845;53.086;5.834;2023-04-06T11:36:46;26.92;;;15.27;;
76113;SDS011;64845;53.086;5.834;2023-04-06T11:39:17;29.40;;;15.10;;
76113;SDS011;64845;53.086;5.834;2023-04-06T11:41:51;23.83;;;13.63;;
76113;SDS011;64845;53.086;5.834;2023-04-06T11:47:14;29.85;;;15.50;;
76113;SDS011;64845;53.086;5.834;2023-04-06T11:49:40;27.02;;;14.68;;
76113;SDS011;64845;53.086;5.834;2023-04-06T11:52:16;30.55;;;15.02;;
76113;SDS011;64845;53.086;5.834;2023-04-06T11:54:46;24.27;;;14.70;;
76113;SDS011;64845;53.086;5.834;2023-04-06T11:57:12;23.10;;;13.18;;
76113;SDS011;64845;53.086;5.834;2023-04-06T11:59:38;29.13;;;14.82;;
76113;SDS011;64845;53.086;5.834;2023-04-06T12:02:04;25.60;;;14.68;;
76113;SDS011;64845;53.086;5.834;2023-04-06T12:04:30;24.10;;;14.35;;
76113;SDS011;64845;53.086;5.834;2023-04-06T12:06:56;25.27;;;14.77;;
76113;SDS011;64845;53.086;5.834;2023-04-06T12:09:22;22.55;;;12.88;;
76113;SDS011;64845;53.086;5.834;2023-04-06T12:11:47;26.40;;;13.70;;
76113;SDS011;64845;53.086;5.834;2023-04-06T12:14:13;22.88;;;12.57;;
76113;SDS011;64845;53.086;5.834;2023-04-06T12:16:39;20.30;;;11.07;;
76113;SDS011;64845;53.086;5.834;2023-04-06T12:19:05;17.45;;;10.77;;
76113;SDS011;64845;53.086;5.834;2023-04-06T12:21:30;19.45;;;10.30;;
76113;SDS011;64845;53.086;5.834;2023-04-06T12:23:59;17.10;;;10.25;;
76113;SDS011;64845;53.086;5.834;2023-04-06T12:26:25;17.27;;;10.85;;
76113;SDS011;64845;53.086;5.834;2023-04-06T12:28:51;20.25;;;12.05;;
76113;SDS011;64845;53.086;5.834;2023-04-06T12:31:17;14.10;;;9.23;;
76113;SDS011;64845;53.086;5.834;2023-04-06T12:33:47;16.70;;;9.57;;
76113;SDS011;64845;53.086;5.834;2023-04-06T12:36:17;10.40;;;7.20;;
76113;SDS011;64845;53.086;5.834;2023-04-06T12:38:47;12.48;;;7.10;;
76113;SDS011;64845;53.086;5.834;2023-04-06T12:41:13;12.55;;;7.68;;
76113;SDS011;64845;53.086;5.834;2023-04-06T12:43:40;13.38;;;7.70;;
76113;SDS011;64845;53.086;5.834;2023-04-06T12:46:06;9.55;;;7.05;;
76113;SDS011;64845;53.086;5.834;2023-04-06T12:48:31;10.60;;;7.05;;
76113;SDS011;64845;53.086;5.834;2023-04-06T12:50:58;13.93;;;7.43;;
76113;SDS011;64845;53.086;5.834;2023-04-06T12:53:24;11.02;;;7.53;;
76113;SDS011;64845;53.086;5.834;2023-04-06T12:55:50;13.02;;;7.47;;
76113;SDS011;64845;53.086;5.834;2023-04-06T12:58:16;13.05;;;7.75;;
76113;SDS011;64845;53.086;5.834;2023-04-06T13:00:42;13.27;;;8.15;;
76113;SDS011;64845;53.086;5.834;2023-04-06T13:03:08;9.18;;;6.97;;
76113;SDS011;64845;53.086;5.834;2023-04-06T13:05:34;12.27;;;7.22;;
76113;SDS011;64845;53.086;5.834;2023-04-06T13:08:00;10.52;;;6.85;;
76113;SDS011;64845;53.086;5.834;2023-04-06T13:10:25;12.23;;;7.72;;
76113;SDS011;64845;53.086;5.834;2023-04-06T13:12:51;13.00;;;7.88;;
76113;SDS011;64845;53.086;5.834;2023-04-06T13:15:17;19.77;;;9.48;;
76113;SDS011;64845;53.086;5.834;2023-04-06T13:17:42;13.73;;;9.18;;
76113;SDS011;64845;53.086;5.834;2023-04-06T13:20:08;18.52;;;11.20;;
76113;SDS011;64845;53.086;5.834;2023-04-06T13:22:33;17.23;;;10.18;;
76113;SDS011;64845;53.086;5.834;2023-04-06T13:24:59;17.40;;;10.93;;
76113;SDS011;64845;53.086;5.834;2023-04-06T13:27:24;18.17;;;10.95;;
76113;SDS011;64845;53.086;5.834;2023-04-06T13:29:50;17.77;;;10.82;;
76113;SDS011;64845;53.086;5.834;2023-04-06T13:32:15;20.48;;;10.32;;
76113;SDS011;64845;53.086;5.834;2023-04-06T13:34:41;18.67;;;11.00;;
76113;SDS011;64845;53.086;5.834;2023-04-06T13:37:10;16.65;;;9.80;;
76113;SDS011;64845;53.086;5.834;2023-04-06T13:39:37;18.30;;;10.07;;
76113;SDS011;64845;53.086;5.834;2023-04-06T13:42:02;21.45;;;10.77;;
76113;SDS011;64845;53.086;5.834;2023-04-06T13:44:28;17.67;;;10.73;;
76113;SDS011;64845;53.086;5.834;2023-04-06T13:46:53;21.38;;;10.45;;
76113;SDS011;64845;53.086;5.834;2023-04-06T13:49:19;17.00;;;10.90;;
76113;SDS011;64845;53.086;5.834;2023-04-06T13:51:45;18.65;;;11.25;;
76113;SDS011;64845;53.086;5.834;2023-04-06T13:54:10;17.80;;;10.90;;
76113;SDS011;64845;53.086;5.834;2023-04-06T13:56:35;16.35;;;10.68;;
76113;SDS011;64845;53.086;5.834;2023-04-06T14:01:27;16.25;;;10.88;;
76113;SDS011;64845;53.086;5.834;2023-04-06T14:03:53;21.13;;;11.25;;
76113;SDS011;64845;53.086;5.834;2023-04-06T14:06:18;21.27;;;11.55;;
76113;SDS011;64845;53.086;5.834;2023-04-06T14:08:44;18.63;;;11.45;;
76113;SDS011;64845;53.086;5.834;2023-04-06T14:11:11;17.90;;;12.05;;
76113;SDS011;64845;53.086;5.834;2023-04-06T14:13:37;19.20;;;11.70;;
76113;SDS011;64845;53.086;5.834;2023-04-06T14:16:03;19.52;;;12.35;;
76113;SDS011;64845;53.086;5.834;2023-04-06T14:18:28;23.10;;;11.93;;
76113;SDS011;64845;53.086;5.834;2023-04-06T14:20:56;18.05;;;11.48;;
76113;SDS011;64845;53.086;5.834;2023-04-06T14:23:23;20.25;;;12.70;;
76113;SDS011;64845;53.086;5.834;2023-04-06T14:25:51;22.73;;;14.05;;
76113;SDS011;64845;53.086;5.834;2023-04-06T14:28:17;20.85;;;13.40;;
76113;SDS011;64845;53.086;5.834;2023-04-06T14:30:43;22.48;;;13.77;;
76113;SDS011;64845;53.086;5.834;2023-04-06T14:33:08;21.70;;;14.07;;
76113;SDS011;64845;53.086;5.834;2023-04-06T14:35:37;22.88;;;14.30;;
76113;SDS011;64845;53.086;5.834;2023-04-06T14:38:03;19.13;;;12.30;;
76113;SDS011;64845;53.086;5.834;2023-04-06T14:40:28;23.25;;;13.63;;
76113;SDS011;64845;53.086;5.834;2023-04-06T14:42:54;24.40;;;13.65;;
76113;SDS011;64845;53.086;5.834;2023-04-06T14:45:21;21.80;;;14.82;;
76113;SDS011;64845;53.086;5.834;2023-04-06T14:47:47;22.25;;;14.48;;